sensor_id;sensor_type;location;lat;lon;timestamp;P1;durP1;ratioP1;P2;durP2;ratioP2
77220;SDS011;66217;50.004;8.266;2023-04-23T00:00:23;6.28;;;4.65;;
77220;SDS011;66217;50.004;8.266;2023-04-23T00:02:51;7.32;;;4.60;;
77220;SDS011;66217;50.004;8.266;2023-04-23T00:05:17;6.75;;;4.47;;
77220;SDS011;66217;50.004;8.266;2023-04-23T00:07:43;8.45;;;5.15;;
77220;SDS011;66217;50.004;8.266;2023-04-23T00:10:10;9.98;;;5.35;;
77220;SDS011;66217;50.004;8.266;2023-04-23T00:12:35;6.80;;;5.38;;
77220;SDS011;66217;50.004;8.266;2023-04-23T00:15:02;9.75;;;5.10;;
77220;SDS011;66217;50.004;8.266;2023-04-23T00:17:28;9.80;;;5.30;;
77220;SDS011;66217;50.004;8.266;2023-04-23T00:19:53;8.80;;;5.70;;
77220;SDS011;66217;50.004;8.266;2023-04-23T00:22:19;8.65;;;5.53;;
77220;SDS011;66217;50.004;8.266;2023-04-23T00:24:45;9.38;;;5.88;;
77220;SDS011;66217;50.004;8.266;2023-04-23T00:27:10;11.15;;;5.88;;
77220;SDS011;66217;50.004;8.266;2023-04-23T00:29:36;10.15;;;5.22;;
77220;SDS011;66217;50.004;8.266;2023-04-23T00:32:02;8.48;;;5.70;;
77220;SDS011;66217;50.004;8.266;2023-04-23T00:34:27;9.75;;;5.70;;
77220;SDS011;66217;50.004;8.266;2023-04-23T00:36:53;12.27;;;5.90;;
77220;SDS011;66217;50.004;8.266;2023-04-23T00:39:18;10.18;;;5.82;;
77220;SDS011;66217;50.004;8.266;2023-04-23T00:41:44;9.98;;;6.15;;
77220;SDS011;66217;50.004;8.266;2023-04-23T00:44:10;11.02;;;6.47;;
77220;SDS011;66217;50.004;8.266;2023-04-23T00:46:36;11.73;;;6.70;;
77220;SDS011;66217;50.004;8.266;2023-04-23T00:49:01;8.40;;;6.68;;
77220;SDS011;66217;50.004;8.266;2023-04-23T00:51:27;9.60;;;6.20;;
77220;SDS011;66217;50.004;8.266;2023-04-23T00:53:53;7.60;;;6.18;;
77220;SDS011;66217;50.004;8.266;2023-04-23T00:56:19;9.65;;;6.18;;
77220;SDS011;66217;50.004;8.266;2023-04-23T00:58:45;12.85;;;6.53;;
77220;SDS011;66217;50.004;8.266;2023-04-23T01:01:10;8.82;;;6.28;;
77220;SDS011;66217;50.004;8.266;2023-04-23T01:03:36;9.00;;;6.50;;
77220;SDS011;66217;50.004;8.266;2023-04-23T01:06:03;9.52;;;6.43;;
77220;SDS011;66217;50.004;8.266;2023-04-23T01:08:29;13.15;;;7.57;;
77220;SDS011;66217;50.004;8.266;2023-04-23T01:10:56;10.63;;;7.50;;
77220;SDS011;66217;50.004;8.266;2023-04-23T01:13:22;12.68;;;7.20;;
77220;SDS011;66217;50.004;8.266;2023-04-23T01:15:50;9.65;;;7.03;;
77220;SDS011;66217;50.004;8.266;2023-04-23T01:18:16;10.38;;;7.47;;
77220;SDS011;66217;50.004;8.266;2023-04-23T01:20:44;12.68;;;7.57;;
77220;SDS011;66217;50.004;8.266;2023-04-23T01:23:10;12.27;;;8.27;;
77220;SDS011;66217;50.004;8.266;2023-04-23T01:25:36;14.23;;;7.85;;
77220;SDS011;66217;50.004;8.266;2023-04-23T01:28:02;12.25;;;8.10;;
77220;SDS011;66217;50.004;8.266;2023-04-23T01:30:27;11.48;;;7.85;;
77220;SDS011;66217;50.004;8.266;2023-04-23T01:32:55;13.68;;;7.80;;
77220;SDS011;66217;50.004;8.266;2023-04-23T01:35:21;12.30;;;7.75;;
77220;SDS011;66217;50.004;8.266;2023-04-23T01:37:47;11.65;;;7.80;;
77220;SDS011;66217;50.004;8.266;2023-04-23T01:40:13;11.93;;;7.82;;
77220;SDS011;66217;50.004;8.266;2023-04-23T01:42:38;13.25;;;7.97;;
77220;SDS011;66217;50.004;8.266;2023-04-23T01:45:05;12.70;;;7.82;;
77220;SDS011;66217;50.004;8.266;2023-04-23T01:47:32;12.93;;;7.97;;
77220;SDS011;66217;50.004;8.266;2023-04-23T01:49:58;15.13;;;8.32;;
77220;SDS011;66217;50.004;8.266;2023-04-23T01:52:24;12.77;;;7.80;;
77220;SDS011;66217;50.004;8.266;2023-04-23T01:54:49;11.88;;;7.22;;
77220;SDS011;66217;50.004;8.266;2023-04-23T01:57:15;12.63;;;7.72;;
77220;SDS011;66217;50.004;8.266;2023-04-23T01:59:47;10.73;;;6.90;;
77220;SDS011;66217;50.004;8.266;2023-04-23T02:02:13;10.50;;;7.03;;
77220;SDS011;66217;50.004;8.266;2023-04-23T02:04:39;9.88;;;6.75;;
77220;SDS011;66217;50.004;8.266;2023-04-23T02:07:05;10.65;;;7.13;;
77220;SDS011;66217;50.004;8.266;2023-04-23T02:09:31;11.65;;;7.13;;
77220;SDS011;66217;50.004;8.266;2023-04-23T02:11:59;10.95;;;7.00;;
77220;SDS011;66217;50.004;8.266;2023-04-23T02:14:26;9.13;;;6.93;;
77220;SDS011;66217;50.004;8.266;2023-04-23T02:16:51;9.52;;;7.13;;
77220;SDS011;66217;50.004;8.266;2023-04-23T02:19:17;10.43;;;7.10;;
77220;SDS011;66217;50.004;8.266;2023-04-23T02:21:42;10.45;;;6.97;;
77220;SDS011;66217;50.004;8.266;2023-04-23T02:24:08;8.75;;;6.50;;
77220;SDS011;66217;50.004;8.266;2023-04-23T02:26:35;12.02;;;7.07;;
77220;SDS011;66217;50.004;8.266;2023-04-23T02:29:00;10.88;;;6.88;;
77220;SDS011;66217;50.004;8.266;2023-04-23T02:31:26;12.20;;;7.05;;
77220;SDS011;66217;50.004;8.266;2023-04-23T02:33:53;9.93;;;7.20;;
77220;SDS011;66217;50.004;8.266;2023-04-23T02:36:19;10.35;;;6.68;;
77220;SDS011;66217;50.004;8.266;2023-04-23T02:38:44;10.30;;;7.22;;
77220;SDS011;66217;50.004;8.266;2023-04-23T02:41:12;9.40;;;6.72;;
77220;SDS011;66217;50.004;8.266;2023-04-23T02:43:38;9.65;;;7.10;;
77220;SDS011;66217;50.004;8.266;2023-04-23T02:46:03;10.73;;;6.78;;
77220;SDS011;66217;50.004;8.266;2023-04-23T02:48:39;10.75;;;7.50;;
77220;SDS011;66217;50.004;8.266;2023-04-23T02:51:06;8.90;;;7.25;;
77220;SDS011;66217;50.004;8.266;2023-04-23T02:53:34;14.02;;;8.02;;
77220;SDS011;66217;50.004;8.266;2023-04-23T02:56:00;11.27;;;8.15;;
77220;SDS011;66217;50.004;8.266;2023-04-23T02:58:27;12.20;;;7.35;;
77220;SDS011;66217;50.004;8.266;2023-04-23T03:00:54;12.32;;;8.13;;
77220;SDS011;66217;50.004;8.266;2023-04-23T03:03:20;11.10;;;7.93;;
77220;SDS011;66217;50.004;8.266;2023-04-23T03:05:46;12.85;;;8.20;;
77220;SDS011;66217;50.004;8.266;2023-04-23T03:08:11;10.95;;;7.78;;
77220;SDS011;66217;50.004;8.266;2023-04-23T03:10:37;12.02;;;7.53;;
77220;SDS011;66217;50.004;8.266;2023-04-23T03:13:03;10.27;;;7.32;;
77220;SDS011;66217;50.004;8.266;2023-04-23T03:15:28;11.00;;;6.70;;
77220;SDS011;66217;50.004;8.266;2023-04-23T03:17:55;9.60;;;7.35;;
77220;SDS011;66217;50.004;8.266;2023-04-23T03:20:20;10.15;;;7.20;;
77220;SDS011;66217;50.004;8.266;2023-04-23T03:22:46;10.55;;;6.68;;
77220;SDS011;66217;50.004;8.266;2023-04-23T03:25:12;8.98;;;7.07;;
77220;SDS011;66217;50.004;8.266;2023-04-23T03:27:38;8.55;;;6.57;;
77220;SDS011;66217;50.004;8.266;2023-04-23T03:30:05;9.05;;;6.80;;
77220;SDS011;66217;50.004;8.266;2023-04-23T03:32:33;9.60;;;7.07;;
77220;SDS011;66217;50.004;8.266;2023-04-23T03:34:58;10.63;;;7.25;;
77220;SDS011;66217;50.004;8.266;2023-04-23T03:37:24;9.25;;;6.43;;
77220;SDS011;66217;50.004;8.266;2023-04-23T03:39:49;11.20;;;7.93;;
77220;SDS011;66217;50.004;8.266;2023-04-23T03:42:15;10.32;;;7.50;;
77220;SDS011;66217;50.004;8.266;2023-04-23T03:44:41;10.70;;;7.15;;
77220;SDS011;66217;50.004;8.266;2023-04-23T03:47:07;9.30;;;6.70;;
77220;SDS011;66217;50.004;8.266;2023-04-23T03:49:33;10.63;;;7.25;;
77220;SDS011;66217;50.004;8.266;2023-04-23T03:51:59;9.10;;;6.72;;
77220;SDS011;66217;50.004;8.266;2023-04-23T03:54:24;8.52;;;6.72;;
77220;SDS011;66217;50.004;8.266;2023-04-23T03:57:01;10.63;;;6.53;;
77220;SDS011;66217;50.004;8.266;2023-04-23T03:59:32;10.52;;;7.47;;
77220;SDS011;66217;50.004;8.266;2023-04-23T04:01:58;9.82;;;7.10;;
77220;SDS011;66217;50.004;8.266;2023-04-23T04:04:24;9.55;;;6.93;;
77220;SDS011;66217;50.004;8.266;2023-04-23T04:06:50;9.63;;;7.53;;
77220;SDS011;66217;50.004;8.266;2023-04-23T04:09:15;9.57;;;6.75;;
77220;SDS011;66217;50.004;8.266;2023-04-23T04:11:41;9.85;;;6.63;;
77220;SDS011;66217;50.004;8.266;2023-04-23T04:14:07;11.02;;;6.75;;
77220;SDS011;66217;50.004;8.266;2023-04-23T04:16:34;10.98;;;7.45;;
77220;SDS011;66217;50.004;8.266;2023-04-23T04:18:59;9.15;;;6.78;;
77220;SDS011;66217;50.004;8.266;2023-04-23T04:21:25;9.60;;;7.55;;
77220;SDS011;66217;50.004;8.266;2023-04-23T04:23:52;9.93;;;6.82;;
77220;SDS011;66217;50.004;8.266;2023-04-23T04:26:17;8.63;;;6.80;;
77220;SDS011;66217;50.004;8.266;2023-04-23T04:28:43;9.13;;;6.80;;
77220;SDS011;66217;50.004;8.266;2023-04-23T04:31:09;10.60;;;7.28;;
77220;SDS011;66217;50.004;8.266;2023-04-23T04:33:34;10.00;;;6.47;;
77220;SDS011;66217;50.004;8.266;2023-04-23T04:36:00;8.05;;;6.22;;
77220;SDS011;66217;50.004;8.266;2023-04-23T04:38:26;11.75;;;6.85;;
77220;SDS011;66217;50.004;8.266;2023-04-23T04:40:55;9.30;;;6.30;;
77220;SDS011;66217;50.004;8.266;2023-04-23T04:43:24;9.80;;;6.40;;
77220;SDS011;66217;50.004;8.266;2023-04-23T04:45:50;7.50;;;6.30;;
77220;SDS011;66217;50.004;8.266;2023-04-23T04:48:16;9.60;;;6.30;;
77220;SDS011;66217;50.004;8.266;2023-04-23T04:50:41;9.00;;;6.50;;
77220;SDS011;66217;50.004;8.266;2023-04-23T04:53:07;9.95;;;6.18;;
77220;SDS011;66217;50.004;8.266;2023-04-23T04:55:32;6.75;;;5.25;;
77220;SDS011;66217;50.004;8.266;2023-04-23T04:57:58;7.47;;;5.85;;
77220;SDS011;66217;50.004;8.266;2023-04-23T05:00:27;6.82;;;5.65;;
77220;SDS011;66217;50.004;8.266;2023-04-23T05:05:20;8.52;;;5.88;;
77220;SDS011;66217;50.004;8.266;2023-04-23T05:07:46;6.20;;;5.25;;
77220;SDS011;66217;50.004;8.266;2023-04-23T05:10:12;7.40;;;5.70;;
77220;SDS011;66217;50.004;8.266;2023-04-23T05:12:37;9.63;;;5.53;;
77220;SDS011;66217;50.004;8.266;2023-04-23T05:15:06;6.78;;;5.43;;
77220;SDS011;66217;50.004;8.266;2023-04-23T05:17:32;7.95;;;5.40;;
77220;SDS011;66217;50.004;8.266;2023-04-23T05:19:58;8.07;;;5.75;;
77220;SDS011;66217;50.004;8.266;2023-04-23T05:22:23;10.18;;;6.13;;
77220;SDS011;66217;50.004;8.266;2023-04-23T05:24:48;8.20;;;5.30;;
77220;SDS011;66217;50.004;8.266;2023-04-23T05:27:14;9.32;;;5.65;;
77220;SDS011;66217;50.004;8.266;2023-04-23T05:29:42;7.47;;;5.78;;
77220;SDS011;66217;50.004;8.266;2023-04-23T05:32:07;7.72;;;5.88;;
77220;SDS011;66217;50.004;8.266;2023-04-23T05:34:33;7.13;;;5.55;;
77220;SDS011;66217;50.004;8.266;2023-04-23T05:36:58;10.07;;;5.68;;
77220;SDS011;66217;50.004;8.266;2023-04-23T05:39:24;8.57;;;5.50;;
77220;SDS011;66217;50.004;8.266;2023-04-23T05:41:50;12.15;;;5.30;;
77220;SDS011;66217;50.004;8.266;2023-04-23T05:44:15;11.38;;;5.40;;
77220;SDS011;66217;50.004;8.266;2023-04-23T05:46:41;7.90;;;5.75;;
77220;SDS011;66217;50.004;8.266;2023-04-23T05:49:06;8.38;;;6.00;;
77220;SDS011;66217;50.004;8.266;2023-04-23T05:51:31;9.18;;;5.65;;
77220;SDS011;66217;50.004;8.266;2023-04-23T05:53:57;7.82;;;5.45;;
77220;SDS011;66217;50.004;8.266;2023-04-23T05:56:22;10.27;;;5.63;;
77220;SDS011;66217;50.004;8.266;2023-04-23T05:58:48;9.35;;;5.78;;
77220;SDS011;66217;50.004;8.266;2023-04-23T06:01:13;9.18;;;5.97;;
77220;SDS011;66217;50.004;8.266;2023-04-23T06:03:39;6.88;;;5.57;;
77220;SDS011;66217;50.004;8.266;2023-04-23T06:06:09;7.57;;;5.57;;
77220;SDS011;66217;50.004;8.266;2023-04-23T06:08:38;10.85;;;6.15;;
77220;SDS011;66217;50.004;8.266;2023-04-23T06:11:04;8.88;;;5.32;;
77220;SDS011;66217;50.004;8.266;2023-04-23T06:13:29;7.57;;;5.20;;
77220;SDS011;66217;50.004;8.266;2023-04-23T06:15:55;7.80;;;5.38;;
77220;SDS011;66217;50.004;8.266;2023-04-23T06:18:21;8.35;;;4.95;;
77220;SDS011;66217;50.004;8.266;2023-04-23T06:20:47;7.13;;;5.28;;
77220;SDS011;66217;50.004;8.266;2023-04-23T06:23:13;6.93;;;5.00;;
77220;SDS011;66217;50.004;8.266;2023-04-23T06:25:38;8.20;;;5.32;;
77220;SDS011;66217;50.004;8.266;2023-04-23T06:28:04;6.18;;;5.00;;
77220;SDS011;66217;50.004;8.266;2023-04-23T06:30:37;7.28;;;5.05;;
77220;SDS011;66217;50.004;8.266;2023-04-23T06:33:02;12.00;;;6.30;;
77220;SDS011;66217;50.004;8.266;2023-04-23T06:35:28;7.32;;;5.45;;
77220;SDS011;66217;50.004;8.266;2023-04-23T06:37:54;7.88;;;5.47;;
77220;SDS011;66217;50.004;8.266;2023-04-23T06:40:20;7.05;;;5.53;;
77220;SDS011;66217;50.004;8.266;2023-04-23T06:42:45;8.27;;;5.32;;
77220;SDS011;66217;50.004;8.266;2023-04-23T06:45:16;9.30;;;5.05;;
77220;SDS011;66217;50.004;8.266;2023-04-23T06:47:42;7.85;;;5.10;;
77220;SDS011;66217;50.004;8.266;2023-04-23T06:50:08;7.60;;;5.03;;
77220;SDS011;66217;50.004;8.266;2023-04-23T06:52:33;6.28;;;4.85;;
77220;SDS011;66217;50.004;8.266;2023-04-23T06:55:00;8.43;;;5.00;;
77220;SDS011;66217;50.004;8.266;2023-04-23T06:57:25;7.63;;;5.50;;
77220;SDS011;66217;50.004;8.266;2023-04-23T06:59:50;7.70;;;5.55;;
77220;SDS011;66217;50.004;8.266;2023-04-23T07:02:19;9.30;;;5.72;;
77220;SDS011;66217;50.004;8.266;2023-04-23T07:04:45;8.25;;;5.13;;
77220;SDS011;66217;50.004;8.266;2023-04-23T07:07:11;6.15;;;4.78;;
77220;SDS011;66217;50.004;8.266;2023-04-23T07:09:36;7.60;;;5.20;;
77220;SDS011;66217;50.004;8.266;2023-04-23T07:12:02;7.28;;;5.20;;
77220;SDS011;66217;50.004;8.266;2023-04-23T07:14:27;6.32;;;4.70;;
77220;SDS011;66217;50.004;8.266;2023-04-23T07:16:53;9.38;;;5.50;;
77220;SDS011;66217;50.004;8.266;2023-04-23T07:19:19;12.25;;;5.25;;
77220;SDS011;66217;50.004;8.266;2023-04-23T07:21:44;11.98;;;5.03;;
77220;SDS011;66217;50.004;8.266;2023-04-23T07:24:10;13.18;;;5.40;;
77220;SDS011;66217;50.004;8.266;2023-04-23T07:26:35;7.00;;;4.72;;
77220;SDS011;66217;50.004;8.266;2023-04-23T07:29:01;7.25;;;4.85;;
77220;SDS011;66217;50.004;8.266;2023-04-23T07:31:31;7.43;;;4.82;;
77220;SDS011;66217;50.004;8.266;2023-04-23T07:33:57;6.78;;;4.30;;
77220;SDS011;66217;50.004;8.266;2023-04-23T07:36:22;7.82;;;4.70;;
77220;SDS011;66217;50.004;8.266;2023-04-23T07:38:48;6.85;;;4.30;;
77220;SDS011;66217;50.004;8.266;2023-04-23T07:41:14;7.65;;;4.40;;
77220;SDS011;66217;50.004;8.266;2023-04-23T07:43:41;8.40;;;4.85;;
77220;SDS011;66217;50.004;8.266;2023-04-23T07:46:06;5.68;;;4.13;;
77220;SDS011;66217;50.004;8.266;2023-04-23T07:48:32;9.15;;;4.28;;
77220;SDS011;66217;50.004;8.266;2023-04-23T07:50:58;6.95;;;4.80;;
77220;SDS011;66217;50.004;8.266;2023-04-23T07:53:26;5.93;;;4.00;;
77220;SDS011;66217;50.004;8.266;2023-04-23T07:55:53;6.00;;;4.28;;
77220;SDS011;66217;50.004;8.266;2023-04-23T07:58:20;6.05;;;4.18;;
77220;SDS011;66217;50.004;8.266;2023-04-23T08:00:46;5.35;;;4.22;;
77220;SDS011;66217;50.004;8.266;2023-04-23T08:03:12;9.70;;;4.55;;
77220;SDS011;66217;50.004;8.266;2023-04-23T08:05:37;6.93;;;4.32;;
77220;SDS011;66217;50.004;8.266;2023-04-23T08:08:05;9.73;;;4.43;;
77220;SDS011;66217;50.004;8.266;2023-04-23T08:10:31;7.55;;;4.80;;
77220;SDS011;66217;50.004;8.266;2023-04-23T08:12:56;6.68;;;4.35;;
77220;SDS011;66217;50.004;8.266;2023-04-23T08:15:22;5.90;;;4.22;;
77220;SDS011;66217;50.004;8.266;2023-04-23T08:17:49;6.88;;;4.20;;
77220;SDS011;66217;50.004;8.266;2023-04-23T08:20:14;6.80;;;4.63;;
77220;SDS011;66217;50.004;8.266;2023-04-23T08:22:42;6.05;;;4.13;;
77220;SDS011;66217;50.004;8.266;2023-04-23T08:25:08;6.32;;;4.40;;
77220;SDS011;66217;50.004;8.266;2023-04-23T08:27:34;9.63;;;5.10;;
77220;SDS011;66217;50.004;8.266;2023-04-23T08:29:59;4.82;;;3.58;;
77220;SDS011;66217;50.004;8.266;2023-04-23T08:32:24;5.25;;;3.22;;
77220;SDS011;66217;50.004;8.266;2023-04-23T08:34:50;5.18;;;3.30;;
77220;SDS011;66217;50.004;8.266;2023-04-23T08:37:16;4.85;;;3.50;;
77220;SDS011;66217;50.004;8.266;2023-04-23T08:39:41;6.60;;;3.78;;
77220;SDS011;66217;50.004;8.266;2023-04-23T08:42:13;4.53;;;3.17;;
77220;SDS011;66217;50.004;8.266;2023-04-23T08:44:41;5.07;;;2.78;;
77220;SDS011;66217;50.004;8.266;2023-04-23T08:47:08;8.18;;;3.25;;
77220;SDS011;66217;50.004;8.266;2023-04-23T08:49:36;3.75;;;2.60;;
77220;SDS011;66217;50.004;8.266;2023-04-23T08:52:15;6.93;;;3.00;;
77220;SDS011;66217;50.004;8.266;2023-04-23T08:54:44;6.53;;;2.88;;
77220;SDS011;66217;50.004;8.266;2023-04-23T08:57:10;4.03;;;2.53;;
77220;SDS011;66217;50.004;8.266;2023-04-23T08:59:36;4.15;;;2.90;;
77220;SDS011;66217;50.004;8.266;2023-04-23T09:02:04;3.97;;;2.60;;
77220;SDS011;66217;50.004;8.266;2023-04-23T09:04:34;5.25;;;2.30;;
77220;SDS011;66217;50.004;8.266;2023-04-23T09:07:00;4.30;;;2.20;;
77220;SDS011;66217;50.004;8.266;2023-04-23T09:09:26;3.72;;;2.38;;
77220;SDS011;66217;50.004;8.266;2023-04-23T09:11:52;3.05;;;2.13;;
77220;SDS011;66217;50.004;8.266;2023-04-23T09:14:17;3.78;;;2.33;;
77220;SDS011;66217;50.004;8.266;2023-04-23T09:16:43;6.18;;;2.45;;
77220;SDS011;66217;50.004;8.266;2023-04-23T09:19:08;3.95;;;2.15;;
77220;SDS011;66217;50.004;8.266;2023-04-23T09:21:35;8.38;;;2.50;;
77220;SDS011;66217;50.004;8.266;2023-04-23T09:24:03;3.75;;;1.92;;
77220;SDS011;66217;50.004;8.266;2023-04-23T09:26:29;2.78;;;1.92;;
77220;SDS011;66217;50.004;8.266;2023-04-23T09:28:55;4.85;;;2.30;;
77220;SDS011;66217;50.004;8.266;2023-04-23T09:31:21;3.33;;;2.30;;
77220;SDS011;66217;50.004;8.266;2023-04-23T09:33:51;4.15;;;1.90;;
77220;SDS011;66217;50.004;8.266;2023-04-23T09:36:20;4.03;;;2.22;;
77220;SDS011;66217;50.004;8.266;2023-04-23T09:38:48;4.47;;;2.00;;
77220;SDS011;66217;50.004;8.266;2023-04-23T09:41:26;4.63;;;2.00;;
77220;SDS011;66217;50.004;8.266;2023-04-23T09:43:56;3.25;;;2.10;;
77220;SDS011;66217;50.004;8.266;2023-04-23T09:46:31;4.18;;;2.25;;
77220;SDS011;66217;50.004;8.266;2023-04-23T09:49:09;5.55;;;2.00;;
77220;SDS011;66217;50.004;8.266;2023-04-23T09:54:14;6.00;;;2.35;;
77220;SDS011;66217;50.004;8.266;2023-04-23T10:01:50;4.18;;;2.42;;
77220;SDS011;66217;50.004;8.266;2023-04-23T10:04:17;5.30;;;2.20;;
77220;SDS011;66217;50.004;8.266;2023-04-23T10:06:45;3.13;;;2.28;;
77220;SDS011;66217;50.004;8.266;2023-04-23T10:09:11;3.83;;;2.50;;
77220;SDS011;66217;50.004;8.266;2023-04-23T10:11:36;8.38;;;3.00;;
77220;SDS011;66217;50.004;8.266;2023-04-23T10:14:02;6.18;;;3.00;;
77220;SDS011;66217;50.004;8.266;2023-04-23T10:16:28;5.90;;;2.55;;
77220;SDS011;66217;50.004;8.266;2023-04-23T10:18:53;5.47;;;3.03;;
77220;SDS011;66217;50.004;8.266;2023-04-23T10:21:22;6.65;;;2.42;;
77220;SDS011;66217;50.004;8.266;2023-04-23T10:23:52;3.35;;;2.22;;
77220;SDS011;66217;50.004;8.266;2023-04-23T10:26:19;2.92;;;2.20;;
77220;SDS011;66217;50.004;8.266;2023-04-23T10:28:46;4.43;;;2.58;;
77220;SDS011;66217;50.004;8.266;2023-04-23T10:31:13;7.00;;;2.38;;
77220;SDS011;66217;50.004;8.266;2023-04-23T10:33:40;6.38;;;2.13;;
77220;SDS011;66217;50.004;8.266;2023-04-23T10:36:07;4.43;;;2.33;;
77220;SDS011;66217;50.004;8.266;2023-04-23T10:38:32;5.90;;;2.38;;
77220;SDS011;66217;50.004;8.266;2023-04-23T10:40:58;5.00;;;2.63;;
77220;SDS011;66217;50.004;8.266;2023-04-23T10:43:25;5.88;;;2.67;;
77220;SDS011;66217;50.004;8.266;2023-04-23T10:45:50;4.25;;;2.30;;
77220;SDS011;66217;50.004;8.266;2023-04-23T10:48:16;6.15;;;2.75;;
77220;SDS011;66217;50.004;8.266;2023-04-23T10:50:41;4.25;;;2.55;;
77220;SDS011;66217;50.004;8.266;2023-04-23T10:53:17;6.13;;;2.65;;
77220;SDS011;66217;50.004;8.266;2023-04-23T10:55:46;6.57;;;3.10;;
77220;SDS011;66217;50.004;8.266;2023-04-23T10:58:12;4.85;;;2.80;;
77220;SDS011;66217;50.004;8.266;2023-04-23T11:03:26;5.70;;;3.47;;
77220;SDS011;66217;50.004;8.266;2023-04-23T11:05:53;7.25;;;3.80;;
77220;SDS011;66217;50.004;8.266;2023-04-23T11:08:18;7.68;;;3.92;;
77220;SDS011;66217;50.004;8.266;2023-04-23T11:10:54;5.60;;;3.60;;
77220;SDS011;66217;50.004;8.266;2023-04-23T11:13:21;4.50;;;3.42;;
77220;SDS011;66217;50.004;8.266;2023-04-23T11:15:48;4.70;;;3.30;;
77220;SDS011;66217;50.004;8.266;2023-04-23T11:18:14;8.55;;;3.72;;
77220;SDS011;66217;50.004;8.266;2023-04-23T11:20:39;5.82;;;3.35;;
77220;SDS011;66217;50.004;8.266;2023-04-23T11:23:05;5.07;;;3.13;;
77220;SDS011;66217;50.004;8.266;2023-04-23T11:25:31;9.57;;;3.60;;
77220;SDS011;66217;50.004;8.266;2023-04-23T11:27:57;6.10;;;3.72;;
77220;SDS011;66217;50.004;8.266;2023-04-23T11:30:31;5.45;;;3.65;;
77220;SDS011;66217;50.004;8.266;2023-04-23T11:32:58;6.32;;;3.78;;
77220;SDS011;66217;50.004;8.266;2023-04-23T11:35:24;5.15;;;3.72;;
77220;SDS011;66217;50.004;8.266;2023-04-23T11:37:52;5.90;;;3.10;;
77220;SDS011;66217;50.004;8.266;2023-04-23T11:40:18;5.65;;;3.00;;
77220;SDS011;66217;50.004;8.266;2023-04-23T11:42:53;8.43;;;3.60;;
77220;SDS011;66217;50.004;8.266;2023-04-23T11:45:19;7.60;;;4.03;;
77220;SDS011;66217;50.004;8.266;2023-04-23T11:47:47;4.38;;;3.50;;
77220;SDS011;66217;50.004;8.266;2023-04-23T11:50:24;5.00;;;3.40;;
77220;SDS011;66217;50.004;8.266;2023-04-23T11:52:50;6.25;;;3.22;;
77220;SDS011;66217;50.004;8.266;2023-04-23T11:55:17;4.20;;;3.33;;
77220;SDS011;66217;50.004;8.266;2023-04-23T11:57:43;4.10;;;2.70;;
77220;SDS011;66217;50.004;8.266;2023-04-23T12:00:14;3.85;;;2.90;;
77220;SDS011;66217;50.004;8.266;2023-04-23T12:02:55;7.85;;;3.35;;
77220;SDS011;66217;50.004;8.266;2023-04-23T12:08:22;5.70;;;3.10;;
77220;SDS011;66217;50.004;8.266;2023-04-23T12:10:52;5.20;;;2.55;;
77220;SDS011;66217;50.004;8.266;2023-04-23T12:16:09;5.10;;;3.55;;
77220;SDS011;66217;50.004;8.266;2023-04-23T12:18:35;8.65;;;2.95;;
77220;SDS011;66217;50.004;8.266;2023-04-23T12:21:06;6.10;;;2.92;;
77220;SDS011;66217;50.004;8.266;2023-04-23T12:23:38;5.15;;;2.90;;
77220;SDS011;66217;50.004;8.266;2023-04-23T12:26:09;4.40;;;2.92;;
77220;SDS011;66217;50.004;8.266;2023-04-23T12:28:55;6.07;;;2.95;;
77220;SDS011;66217;50.004;8.266;2023-04-23T12:31:26;6.25;;;2.50;;
77220;SDS011;66217;50.004;8.266;2023-04-23T12:34:03;8.52;;;3.15;;
77220;SDS011;66217;50.004;8.266;2023-04-23T12:36:30;9.27;;;2.75;;
77220;SDS011;66217;50.004;8.266;2023-04-23T12:41:50;5.78;;;2.70;;
77220;SDS011;66217;50.004;8.266;2023-04-23T12:44:17;6.30;;;2.95;;
77220;SDS011;66217;50.004;8.266;2023-04-23T12:46:43;4.55;;;2.70;;
77220;SDS011;66217;50.004;8.266;2023-04-23T12:49:09;3.40;;;2.55;;
77220;SDS011;66217;50.004;8.266;2023-04-23T12:51:34;4.28;;;2.80;;
77220;SDS011;66217;50.004;8.266;2023-04-23T12:54:02;4.50;;;2.20;;
77220;SDS011;66217;50.004;8.266;2023-04-23T12:56:28;5.75;;;2.45;;
77220;SDS011;66217;50.004;8.266;2023-04-23T12:58:54;4.10;;;2.40;;
77220;SDS011;66217;50.004;8.266;2023-04-23T13:01:19;4.72;;;2.17;;
77220;SDS011;66217;50.004;8.266;2023-04-23T13:03:44;5.35;;;2.67;;
77220;SDS011;66217;50.004;8.266;2023-04-23T13:06:10;3.67;;;2.30;;
77220;SDS011;66217;50.004;8.266;2023-04-23T13:08:35;3.08;;;2.10;;
77220;SDS011;66217;50.004;8.266;2023-04-23T13:11:01;3.22;;;2.15;;
77220;SDS011;66217;50.004;8.266;2023-04-23T13:13:26;3.25;;;2.40;;
77220;SDS011;66217;50.004;8.266;2023-04-23T13:15:52;3.20;;;2.25;;
77220;SDS011;66217;50.004;8.266;2023-04-23T13:18:18;5.07;;;2.35;;
77220;SDS011;66217;50.004;8.266;2023-04-23T13:20:44;3.40;;;2.10;;
77220;SDS011;66217;50.004;8.266;2023-04-23T13:23:09;4.22;;;2.10;;
77220;SDS011;66217;50.004;8.266;2023-04-23T13:25:36;4.72;;;2.10;;
77220;SDS011;66217;50.004;8.266;2023-04-23T13:28:01;5.28;;;2.60;;
77220;SDS011;66217;50.004;8.266;2023-04-23T13:30:27;4.13;;;2.40;;
77220;SDS011;66217;50.004;8.266;2023-04-23T13:32:52;3.78;;;2.25;;
77220;SDS011;66217;50.004;8.266;2023-04-23T13:35:19;5.78;;;2.40;;
77220;SDS011;66217;50.004;8.266;2023-04-23T13:37:45;3.85;;;2.00;;
77220;SDS011;66217;50.004;8.266;2023-04-23T13:40:10;3.17;;;1.92;;
77220;SDS011;66217;50.004;8.266;2023-04-23T13:42:36;7.43;;;2.50;;
77220;SDS011;66217;50.004;8.266;2023-04-23T13:45:01;2.88;;;1.92;;
77220;SDS011;66217;50.004;8.266;2023-04-23T13:47:30;2.90;;;1.90;;
77220;SDS011;66217;50.004;8.266;2023-04-23T13:49:57;4.10;;;1.90;;
77220;SDS011;66217;50.004;8.266;2023-04-23T13:52:23;3.30;;;2.00;;
77220;SDS011;66217;50.004;8.266;2023-04-23T13:54:49;3.35;;;2.22;;
77220;SDS011;66217;50.004;8.266;2023-04-23T13:57:16;3.28;;;1.70;;
77220;SDS011;66217;50.004;8.266;2023-04-23T13:59:42;2.55;;;1.70;;
77220;SDS011;66217;50.004;8.266;2023-04-23T14:02:07;2.63;;;1.77;;
77220;SDS011;66217;50.004;8.266;2023-04-23T14:04:32;4.22;;;2.35;;
77220;SDS011;66217;50.004;8.266;2023-04-23T14:06:58;2.17;;;1.70;;
77220;SDS011;66217;50.004;8.266;2023-04-23T14:09:23;2.70;;;1.92;;
77220;SDS011;66217;50.004;8.266;2023-04-23T14:11:49;2.95;;;1.80;;
77220;SDS011;66217;50.004;8.266;2023-04-23T14:14:14;3.15;;;1.58;;
77220;SDS011;66217;50.004;8.266;2023-04-23T14:16:40;2.13;;;1.73;;
77220;SDS011;66217;50.004;8.266;2023-04-23T14:19:06;3.20;;;2.03;;
77220;SDS011;66217;50.004;8.266;2023-04-23T14:21:31;3.70;;;2.00;;
77220;SDS011;66217;50.004;8.266;2023-04-23T14:24:00;4.95;;;1.80;;
77220;SDS011;66217;50.004;8.266;2023-04-23T14:28:56;3.72;;;1.73;;
77220;SDS011;66217;50.004;8.266;2023-04-23T14:31:26;3.53;;;2.00;;
77220;SDS011;66217;50.004;8.266;2023-04-23T14:33:51;4.70;;;2.08;;
77220;SDS011;66217;50.004;8.266;2023-04-23T14:36:18;3.83;;;1.98;;
77220;SDS011;66217;50.004;8.266;2023-04-23T14:38:43;3.38;;;2.08;;
77220;SDS011;66217;50.004;8.266;2023-04-23T14:41:08;2.53;;;1.52;;
77220;SDS011;66217;50.004;8.266;2023-04-23T14:43:34;3.00;;;1.70;;
77220;SDS011;66217;50.004;8.266;2023-04-23T14:46:01;2.55;;;1.70;;
77220;SDS011;66217;50.004;8.266;2023-04-23T14:48:27;2.92;;;1.80;;
77220;SDS011;66217;50.004;8.266;2023-04-23T14:50:53;5.53;;;1.95;;
77220;SDS011;66217;50.004;8.266;2023-04-23T14:53:18;2.83;;;1.90;;
77220;SDS011;66217;50.004;8.266;2023-04-23T14:55:45;3.05;;;2.00;;
77220;SDS011;66217;50.004;8.266;2023-04-23T14:58:10;3.33;;;2.20;;
77220;SDS011;66217;50.004;8.266;2023-04-23T15:00:36;4.20;;;1.92;;
77220;SDS011;66217;50.004;8.266;2023-04-23T15:03:01;2.67;;;1.98;;
77220;SDS011;66217;50.004;8.266;2023-04-23T15:05:32;3.80;;;2.08;;